Terminal Aerodrome Forecast
Issued by NWS Lake Charles, LA

Home | Current Version | Previous Version | Text Only | Print | Product List | Glossary On
Versions: 1 2 3 4 5 6 7 8 9 10 11 12 13 14 15 16 17 18 19 20 21
000
FTUS44 KLCH 020354 AAA
TAFBPT
TAF AMD
KBPT 020354Z 0204/0224 16008KT P6SM SCT020
     FM020600 16008KT P6SM SCT005 BKN012
     FM020700 17010KT 6SM BR OVC003
     FM021700 17014G22KT P6SM BKN035=

USA.gov is the U.S. government's official web portal to all federal, state and local government web resources and services.